Time;durP1;ratioP1;P1;durP2;ratioP2;P2;SDS_P1;SDS_P2;PMS_P1;PMS_P2;Temp;Humidity;BMP_temperature;BMP_pressure;BME280_temperature;BME280_humidity;BME280_pressure;Samples;Min_cycle;Max_cycle;Signal;HPM_P1;HPM_P2
2022/09/09 00:02:05;;;;;;;13.80;12.60;;;;;;;;;;5007215;28;20250;-75
2022/09/09 00:04:34;;;;;;;14.23;12.93;;;;;;;;;;5015622;28;20228;-75
2022/09/09 00:07:24;;;;;;;15.23;13.77;;;;;;;;;;5009478;28;21018;-74
2022/09/09 00:10:09;;;;;;;14.98;13.68;;;;;;;;;;5003588;28;20813;-75
2022/09/09 00:12:57;;;;;;;14.70;13.40;;;;;;;;;;5019038;28;20223;-75
2022/09/09 00:15:30;;;;;;;16.97;15.27;;;;;;;;;;5027986;28;20227;-74
2022/09/09 00:18:31;;;;;;;16.63;14.93;;;;;;;;;;4993384;28;20303;-74
2022/09/09 00:21:26;;;;;;;16.80;15.10;;;;;;;;;;5022827;28;20224;-75
2022/09/09 00:23:53;;;;;;;16.23;14.70;;;;;;;;;;5015997;28;20749;-74
2022/09/09 00:26:24;;;;;;;16.37;14.97;;;;;;;;;;5005108;28;20318;-74
2022/09/09 00:28:52;;;;;;;18.50;15.67;;;;;;;;;;5038100;28;20220;-75
2022/09/09 00:31:23;;;;;;;16.53;13.67;;;;;;;;;;5025857;28;20296;-75
2022/09/09 00:33:51;;;;;;;14.13;12.83;;;;;;;;;;5000410;28;20230;-75
2022/09/09 00:36:21;;;;;;;14.43;13.03;;;;;;;;;;4995435;28;20223;-75
2022/09/09 00:38:56;;;;;;;14.70;13.30;;;;;;;;;;4993077;28;20653;-75
2022/09/09 00:42:08;;;;;;;13.97;12.60;;;;;;;;;;4973212;28;20247;-75
2022/09/09 00:44:37;;;;;;;17.33;15.57;;;;;;;;;;4993996;28;20655;-75
2022/09/09 00:47:39;;;;;;;15.77;14.17;;;;;;;;;;4999116;28;20239;-75
2022/09/09 00:50:39;;;;;;;16.50;14.80;;;;;;;;;;5007395;28;20320;-74
2022/09/09 00:53:23;;;;;;;17.43;15.73;;;;;;;;;;5017272;28;20634;-75
2022/09/09 00:56:07;;;;;;;18.70;16.97;;;;;;;;;;5008999;28;20282;-75
2022/09/09 00:58:33;;;;;;;16.47;14.83;;;;;;;;;;5034104;28;20650;-75
2022/09/09 01:01:08;;;;;;;16.67;15.17;;;;;;;;;;5027119;28;20234;-74
2022/09/09 01:03:59;;;;;;;17.37;15.27;;;;;;;;;;5010536;28;20227;-74
2022/09/09 01:06:31;;;;;;;17.07;15.27;;;;;;;;;;5004699;28;20231;-75
2022/09/09 01:09:17;;;;;;;15.13;13.73;;;;;;;;;;5019795;28;20231;-74
2022/09/09 01:11:47;;;;;;;17.00;15.40;;;;;;;;;;5015179;28;20220;-74
2022/09/09 01:14:30;;;;;;;15.93;14.53;;;;;;;;;;5005915;28;20785;-74
2022/09/09 01:17:21;;;;;;;17.03;15.30;;;;;;;;;;5011783;28;20246;-75
2022/09/09 01:20:03;;;;;;;17.10;15.37;;;;;;;;;;5007520;28;20342;-74
2022/09/09 01:22:39;;;;;;;18.90;17.00;;;;;;;;;;5005602;28;20219;-74
2022/09/09 01:25:17;;;;;;;17.50;15.80;;;;;;;;;;5006236;28;20251;-74
2022/09/09 01:27:54;;;;;;;17.40;15.70;;;;;;;;;;5025463;28;20399;-74
2022/09/09 01:30:23;;;;;;;17.60;15.90;;;;;;;;;;4996666;28;20220;-74
2022/09/09 01:32:55;;;;;;;18.33;16.47;;;;;;;;;;5003404;28;20933;-74
2022/09/09 01:35:39;;;;;;;16.10;14.70;;;;;;;;;;5007655;28;20211;-75
2022/09/09 01:38:05;;;;;;;16.30;14.80;;;;;;;;;;5021913;28;20231;-74
2022/09/09 01:40:35;;;;;;;16.30;14.80;;;;;;;;;;4977324;28;20224;-74
2022/09/09 01:43:00;;;;;;;14.73;13.43;;;;;;;;;;4989329;28;20270;-74
2022/09/09 01:45:29;;;;;;;16.57;14.50;;;;;;;;;;5007188;28;20723;-73
2022/09/09 01:47:56;;;;;;;15.13;13.73;;;;;;;;;;5005071;28;20921;-74
2022/09/09 01:50:40;;;;;;;14.33;13.03;;;;;;;;;;5002489;28;20728;-74
2022/09/09 01:53:11;;;;;;;15.03;13.63;;;;;;;;;;4990071;28;20778;-73
2022/09/09 01:55:40;;;;;;;15.53;14.17;;;;;;;;;;5015918;28;20265;-74
2022/09/09 01:58:22;;;;;;;15.40;14.10;;;;;;;;;;5006434;28;20255;-74
2022/09/09 02:01:29;;;;;;;14.00;12.80;;;;;;;;;;5002275;28;20219;-74
2022/09/09 02:03:59;;;;;;;13.70;12.50;;;;;;;;;;5019730;28;20216;-74
2022/09/09 02:06:36;;;;;;;14.33;13.13;;;;;;;;;;4986110;28;20224;-74
2022/09/09 02:09:23;;;;;;;13.37;12.17;;;;;;;;;;4996659;28;20243;-74
2022/09/09 02:11:54;;;;;;;12.63;11.53;;;;;;;;;;4995572;28;20258;-74
2022/09/09 02:14:34;;;;;;;12.03;10.80;;;;;;;;;;5004066;28;20305;-74
2022/09/09 02:17:09;;;;;;;11.43;10.53;;;;;;;;;;5006582;28;20673;-74
2022/09/09 02:19:58;;;;;;;11.77;10.57;;;;;;;;;;5010045;28;20745;-74
2022/09/09 02:22:35;;;;;;;16.97;10.77;;;;;;;;;;5011604;28;20211;-73
2022/09/09 02:25:05;;;;;;;12.43;11.33;;;;;;;;;;4985827;28;20231;-74
2022/09/09 02:27:33;;;;;;;11.70;10.73;;;;;;;;;;4992235;28;20227;-74
2022/09/09 02:30:01;;;;;;;10.67;9.80;;;;;;;;;;5004353;28;20866;-74
2022/09/09 02:32:41;;;;;;;10.97;10.10;;;;;;;;;;5008118;28;20235;-74
2022/09/09 02:35:14;;;;;;;11.27;10.27;;;;;;;;;;5005368;28;20218;-74
2022/09/09 02:37:45;;;;;;;11.17;10.10;;;;;;;;;;5024204;28;20220;-73
2022/09/09 02:40:12;;;;;;;11.27;10.37;;;;;;;;;;4993007;28;20216;-74
2022/09/09 02:42:48;;;;;;;11.43;10.33;;;;;;;;;;4969699;28;20246;-73
2022/09/09 02:45:20;;;;;;;12.47;11.30;;;;;;;;;;4975694;28;20242;-73
2022/09/09 02:48:04;;;;;;;11.77;10.77;;;;;;;;;;5008185;28;20231;-73
2022/09/09 02:50:33;;;;;;;12.23;11.07;;;;;;;;;;5009457;28;20653;-73
2022/09/09 02:53:10;;;;;;;11.60;10.53;;;;;;;;;;4980704;28;20736;-74
2022/09/09 02:55:58;;;;;;;11.53;10.57;;;;;;;;;;5026200;28;20297;-74
2022/09/09 02:58:26;;;;;;;12.07;10.87;;;;;;;;;;5019630;28;20223;-73
2022/09/09 03:00:57;;;;;;;12.30;11.20;;;;;;;;;;4992914;28;20243;-74
2022/09/09 03:03:24;;;;;;;12.10;11.10;;;;;;;;;;4993635;28;20272;-74
2022/09/09 03:05:55;;;;;;;9.70;8.90;;;;;;;;;;5018458;28;20273;-74
2022/09/09 03:08:20;;;;;;;9.80;8.93;;;;;;;;;;5027505;28;20219;-73
2022/09/09 03:10:47;;;;;;;10.40;9.60;;;;;;;;;;5035145;28;20225;-74
2022/09/09 03:13:19;;;;;;;11.70;10.60;;;;;;;;;;5034188;28;20242;-73
2022/09/09 03:15:48;;;;;;;11.90;10.90;;;;;;;;;;5017830;28;20215;-73
2022/09/09 03:18:16;;;;;;;12.33;11.13;;;;;;;;;;5005126;28;20224;-74
2022/09/09 03:20:48;;;;;;;12.33;11.33;;;;;;;;;;5020049;28;20219;-73
2022/09/09 03:23:14;;;;;;;11.63;10.63;;;;;;;;;;5003756;28;20280;-73
2022/09/09 03:25:47;;;;;;;11.70;10.60;;;;;;;;;;5006006;28;20219;-74
2022/09/09 03:28:14;;;;;;;12.07;10.93;;;;;;;;;;5009248;28;20243;-74
2022/09/09 03:30:39;;;;;;;12.43;11.37;;;;;;;;;;5002620;28;20251;-74
2022/09/09 03:33:05;;;;;;;11.37;10.47;;;;;;;;;;5017542;28;20920;-74
2022/09/09 03:35:32;;;;;;;12.03;11.07;;;;;;;;;;5005545;28;20219;-74
2022/09/09 03:38:01;;;;;;;12.67;11.33;;;;;;;;;;5019807;28;20232;-74
2022/09/09 03:40:30;;;;;;;11.97;10.97;;;;;;;;;;5011157;28;20227;-74
2022/09/09 03:43:03;;;;;;;11.17;10.27;;;;;;;;;;5017480;28;20288;-74
2022/09/09 03:45:30;;;;;;;11.47;10.40;;;;;;;;;;5035292;28;20223;-74
2022/09/09 03:47:56;;;;;;;12.23;11.13;;;;;;;;;;4998275;28;20334;-74
2022/09/09 03:50:23;;;;;;;11.03;10.13;;;;;;;;;;4986299;28;20665;-74
2022/09/09 03:52:50;;;;;;;11.83;10.70;;;;;;;;;;5016748;28;20227;-74
2022/09/09 03:55:23;;;;;;;12.03;11.03;;;;;;;;;;4979780;28;20228;-75
2022/09/09 03:57:52;;;;;;;12.47;11.23;;;;;;;;;;5011912;28;20231;-74
2022/09/09 04:00:18;;;;;;;10.87;10.07;;;;;;;;;;4996259;28;20224;-74
2022/09/09 04:02:50;;;;;;;12.20;11.00;;;;;;;;;;4975037;28;20292;-74
2022/09/09 04:05:17;;;;;;;12.23;10.87;;;;;;;;;;5003781;28;20625;-74
2022/09/09 04:07:45;;;;;;;10.87;9.90;;;;;;;;;;5020321;28;20227;-74
2022/09/09 04:10:13;;;;;;;11.37;10.27;;;;;;;;;;4991969;28;20215;-74
2022/09/09 04:12:43;;;;;;;11.30;10.30;;;;;;;;;;5015631;28;20223;-75
2022/09/09 04:15:10;;;;;;;11.37;10.30;;;;;;;;;;5020667;28;20361;-75
2022/09/09 04:17:38;;;;;;;10.83;9.80;;;;;;;;;;5007928;28;20233;-75
2022/09/09 04:20:05;;;;;;;10.07;9.07;;;;;;;;;;5005336;28;20247;-75
2022/09/09 04:22:33;;;;;;;9.93;9.03;;;;;;;;;;5006155;28;20657;-75
2022/09/09 04:25:00;;;;;;;10.17;9.17;;;;;;;;;;5041414;28;20219;-74
2022/09/09 04:27:28;;;;;;;8.80;8.03;;;;;;;;;;5014809;28;20240;-75
2022/09/09 04:29:56;;;;;;;9.80;8.80;;;;;;;;;;4989428;28;20220;-74
2022/09/09 04:32:33;;;;;;;9.57;8.77;;;;;;;;;;5016001;28;21425;-76
2022/09/09 04:34:59;;;;;;;9.60;8.83;;;;;;;;;;5003183;28;20701;-74
2022/09/09 04:37:26;;;;;;;10.07;9.17;;;;;;;;;;5002551;28;20311;-72
2022/09/09 04:39:52;;;;;;;10.93;9.97;;;;;;;;;;5035116;28;20219;-73
2022/09/09 04:42:21;;;;;;;10.17;9.27;;;;;;;;;;4980924;28;20248;-72
2022/09/09 04:44:47;;;;;;;9.63;8.90;;;;;;;;;;5035791;28;20592;-74
2022/09/09 04:47:14;;;;;;;10.33;9.43;;;;;;;;;;5011973;28;20239;-73
2022/09/09 04:49:41;;;;;;;9.10;8.40;;;;;;;;;;5004724;28;20219;-73
2022/09/09 04:52:07;;;;;;;10.00;9.03;;;;;;;;;;4994903;28;20231;-73
2022/09/09 04:54:35;;;;;;;8.93;8.03;;;;;;;;;;5025833;28;20230;-73
2022/09/09 04:57:01;;;;;;;7.97;7.33;;;;;;;;;;5018736;28;20220;-73
2022/09/09 04:59:28;;;;;;;8.20;7.40;;;;;;;;;;5018887;28;20254;-73
2022/09/09 05:01:57;;;;;;;7.90;7.30;;;;;;;;;;5003233;28;20231;-72
2022/09/09 05:04:26;;;;;;;7.77;7.23;;;;;;;;;;5006645;28;21202;-73
2022/09/09 05:06:52;;;;;;;7.97;7.37;;;;;;;;;;5006018;28;20256;-73
2022/09/09 05:09:18;;;;;;;7.27;6.53;;;;;;;;;;5026328;28;20354;-74
2022/09/09 05:11:46;;;;;;;7.67;6.97;;;;;;;;;;5028118;28;20223;-73
2022/09/09 05:14:36;;;;;;;7.20;6.50;;;;;;;;;;4993434;28;20278;-74
2022/09/09 05:17:39;;;;;;;7.43;6.73;;;;;;;;;;4990172;28;20639;-73
2022/09/09 05:20:12;;;;;;;7.07;6.47;;;;;;;;;;4968540;28;20228;-72
2022/09/09 05:22:39;;;;;;;7.27;6.57;;;;;;;;;;5006802;28;20225;-71
2022/09/09 05:33:13;;;;;;;6.40;5.90;;;;;;;;;;4907569;29;20609;-71
2022/09/09 05:36:05;;;;;;;5.97;5.47;;;;;;;;;;4900007;28;20240;-73
2022/09/09 05:38:32;;;;;;;6.17;5.57;;;;;;;;;;5007156;28;20220;-71
2022/09/09 05:41:00;;;;;;;6.70;6.17;;;;;;;;;;5020283;28;20703;-71
2022/09/09 05:43:28;;;;;;;4.80;4.30;;;;;;;;;;5023002;28;20623;-69
2022/09/09 05:46:06;;;;;;;5.20;4.70;;;;;;;;;;4972238;28;20224;-71
2022/09/09 05:48:46;;;;;;;5.03;4.33;;;;;;;;;;5011690;28;20235;-69
2022/09/09 05:51:15;;;;;;;4.20;3.90;;;;;;;;;;4976135;28;20223;-71
2022/09/09 05:53:42;;;;;;;3.80;3.53;;;;;;;;;;5000954;28;20801;-70
2022/09/09 05:56:19;;;;;;;3.80;3.33;;;;;;;;;;4998535;28;20273;-71
2022/09/09 05:58:46;;;;;;;4.10;3.70;;;;;;;;;;5002015;28;20239;-70
2022/09/09 06:01:35;;;;;;;3.50;3.20;;;;;;;;;;5001905;28;20218;-72
2022/09/09 06:04:03;;;;;;;3.77;3.00;;;;;;;;;;5010881;28;20228;-71
2022/09/09 06:06:36;;;;;;;3.40;3.10;;;;;;;;;;5024964;28;20228;-72
2022/09/09 06:09:09;;;;;;;5.63;3.40;;;;;;;;;;5018509;28;20239;-71
2022/09/09 06:11:37;;;;;;;3.63;2.87;;;;;;;;;;4991904;28;20228;-71
2022/09/09 06:14:04;;;;;;;5.77;3.00;;;;;;;;;;5015581;28;20238;-71
2022/09/09 06:16:34;;;;;;;3.40;2.77;;;;;;;;;;5039680;28;20227;-72
2022/09/09 06:20:02;;;;;;;6.23;3.00;;;;;;;;;;5019685;28;20243;-73
2022/09/09 06:22:36;;;;;;;2.83;2.30;;;;;;;;;;4991381;28;20251;-71
2022/09/09 06:25:03;;;;;;;3.17;2.53;;;;;;;;;;5003938;28;20220;-72
2022/09/09 06:27:29;;;;;;;2.50;2.30;;;;;;;;;;4994204;28;20231;-72
2022/09/09 06:29:56;;;;;;;2.63;2.43;;;;;;;;;;5013012;28;20351;-72
2022/09/09 06:32:22;;;;;;;3.47;2.30;;;;;;;;;;4968382;28;20224;-72
2022/09/09 06:34:51;;;;;;;3.53;2.70;;;;;;;;;;4991865;28;20227;-71
2022/09/09 06:37:18;;;;;;;3.95;2.38;;;;;;;;;;5003258;28;20223;-71
2022/09/09 06:39:48;;;;;;;3.60;2.45;;;;;;;;;;5019019;28;20218;-71
2022/09/09 06:42:17;;;;;;;3.07;2.10;;;;;;;;;;5016632;28;20333;-70
2022/09/09 06:45:32;;;;;;;2.22;2.13;;;;;;;;;;5038102;28;20227;-70
2022/09/09 06:48:08;;;;;;;2.30;2.10;;;;;;;;;;4989909;28;20234;-70
2022/09/09 06:50:35;;;;;;;2.17;1.93;;;;;;;;;;4986260;28;20243;-71
2022/09/09 06:53:02;;;;;;;2.50;2.05;;;;;;;;;;4998529;28;20224;-70
2022/09/09 06:55:31;;;;;;;2.55;2.30;;;;;;;;;;4991911;28;20331;-71
2022/09/09 06:57:58;;;;;;;4.47;2.20;;;;;;;;;;5005707;28;20227;-71
2022/09/09 07:00:24;;;;;;;2.40;2.17;;;;;;;;;;5010479;28;20812;-71
2022/09/09 07:02:51;;;;;;;2.97;2.65;;;;;;;;;;5033976;28;20294;-71
2022/09/09 07:05:18;;;;;;;3.38;2.58;;;;;;;;;;4991382;28;20255;-71
2022/09/09 07:07:46;;;;;;;3.20;2.45;;;;;;;;;;4988685;28;20231;-71
2022/09/09 07:10:15;;;;;;;3.37;2.50;;;;;;;;;;4990189;28;20215;-70
2022/09/09 07:12:41;;;;;;;6.13;2.40;;;;;;;;;;4992098;28;20223;-71
2022/09/09 07:15:10;;;;;;;2.67;2.35;;;;;;;;;;5017808;28;20687;-71
2022/09/09 07:17:39;;;;;;;3.10;2.28;;;;;;;;;;4985364;28;20292;-72
2022/09/09 07:20:07;;;;;;;3.25;2.08;;;;;;;;;;4990194;28;20227;-72
2022/09/09 07:22:34;;;;;;;2.40;2.20;;;;;;;;;;5002271;28;20230;-70
2022/09/09 07:25:02;;;;;;;4.30;2.80;;;;;;;;;;5014995;28;20223;-71
2022/09/09 07:27:28;;;;;;;2.72;2.10;;;;;;;;;;4983716;28;20318;-70
2022/09/09 07:29:55;;;;;;;3.65;3.10;;;;;;;;;;5003486;28;20593;-71
2022/09/09 07:32:22;;;;;;;3.35;3.05;;;;;;;;;;5017653;28;20224;-71
2022/09/09 07:34:50;;;;;;;3.78;3.30;;;;;;;;;;4988959;28;20231;-71
2022/09/09 07:37:16;;;;;;;4.90;3.42;;;;;;;;;;4998237;28;20277;-72
2022/09/09 07:39:44;;;;;;;4.65;3.05;;;;;;;;;;5002084;28;20787;-71
2022/09/09 07:42:57;;;;;;;3.55;2.90;;;;;;;;;;5015979;28;20218;-72
2022/09/09 07:45:33;;;;;;;4.05;2.90;;;;;;;;;;4955400;28;20269;-73
2022/09/09 07:47:59;;;;;;;5.00;3.10;;;;;;;;;;4994894;28;20868;-72
2022/09/09 07:50:26;;;;;;;4.93;2.72;;;;;;;;;;4982368;28;20224;-72
2022/09/09 07:52:53;;;;;;;4.03;2.15;;;;;;;;;;4980173;28;20222;-71
2022/09/09 07:55:20;;;;;;;3.72;2.25;;;;;;;;;;4983469;28;20227;-72
2022/09/09 07:57:47;;;;;;;3.47;3.15;;;;;;;;;;5012353;28;20235;-72
2022/09/09 08:00:14;;;;;;;2.83;2.45;;;;;;;;;;4991175;28;20224;-73
2022/09/09 08:02:44;;;;;;;3.55;2.42;;;;;;;;;;5024075;28;20230;-72
2022/09/09 08:05:12;;;;;;;3.53;2.33;;;;;;;;;;5006890;28;20217;-73
2022/09/09 08:07:40;;;;;;;3.42;2.42;;;;;;;;;;5002312;28;20251;-73
2022/09/09 08:10:06;;;;;;;2.92;2.08;;;;;;;;;;4986372;28;20281;-73
2022/09/09 08:12:35;;;;;;;3.60;2.05;;;;;;;;;;4972161;28;20743;-73
2022/09/09 08:15:02;;;;;;;3.00;1.83;;;;;;;;;;5015896;28;20693;-73
2022/09/09 08:17:32;;;;;;;2.80;1.75;;;;;;;;;;4995534;28;20227;-73
2022/09/09 08:20:05;;;;;;;4.13;2.45;;;;;;;;;;4988774;28;20262;-73
2022/09/09 08:22:32;;;;;;;2.05;1.55;;;;;;;;;;5006722;28;20234;-73
2022/09/09 08:25:00;;;;;;;2.13;1.63;;;;;;;;;;5022809;28;20310;-73
2022/09/09 08:27:26;;;;;;;2.20;1.60;;;;;;;;;;5006317;28;20231;-72
2022/09/09 08:29:53;;;;;;;3.67;1.50;;;;;;;;;;4982298;28;20313;-73
2022/09/09 08:32:20;;;;;;;3.10;1.55;;;;;;;;;;5023155;28;20375;-74
2022/09/09 08:34:49;;;;;;;2.53;1.80;;;;;;;;;;5021561;28;20231;-73
2022/09/09 08:37:21;;;;;;;4.53;1.58;;;;;;;;;;5002398;28;20235;-73
2022/09/09 08:39:48;;;;;;;3.83;1.67;;;;;;;;;;5017030;28;20780;-72
2022/09/09 08:42:41;;;;;;;2.95;1.58;;;;;;;;;;5015158;28;20278;-73
2022/09/09 08:45:29;;;;;;;2.50;1.63;;;;;;;;;;5018185;28;20596;-73
2022/09/09 08:48:01;;;;;;;2.33;1.73;;;;;;;;;;5016551;28;20253;-73
2022/09/09 08:50:41;;;;;;;3.65;1.90;;;;;;;;;;5017470;28;20227;-73
2022/09/09 08:53:22;;;;;;;2.85;1.40;;;;;;;;;;5006336;28;20319;-73
2022/09/09 08:55:52;;;;;;;2.22;1.38;;;;;;;;;;4986532;28;20311;-73
2022/09/09 08:58:29;;;;;;;3.45;2.05;;;;;;;;;;4985494;28;20721;-72
2022/09/09 09:01:09;;;;;;;3.22;1.80;;;;;;;;;;5034076;28;20705;-72
2022/09/09 09:04:01;;;;;;;2.67;1.77;;;;;;;;;;5025439;28;20251;-73
2022/09/09 09:06:30;;;;;;;2.85;1.75;;;;;;;;;;5033472;28;20311;-71
2022/09/09 09:09:08;;;;;;;3.30;1.70;;;;;;;;;;5033150;28;20228;-72
2022/09/09 09:11:42;;;;;;;3.08;1.77;;;;;;;;;;4991437;28;20635;-72
2022/09/09 09:14:21;;;;;;;2.75;1.45;;;;;;;;;;5007356;28;20227;-74
2022/09/09 09:16:58;;;;;;;3.00;1.38;;;;;;;;;;5007769;28;20226;-72
2022/09/09 09:19:29;;;;;;;2.67;1.40;;;;;;;;;;5002447;28;20227;-72
2022/09/09 09:22:03;;;;;;;4.68;1.40;;;;;;;;;;5023427;28;20219;-73
2022/09/09 09:24:50;;;;;;;3.05;1.70;;;;;;;;;;5012713;28;20736;-72
2022/09/09 09:27:30;;;;;;;2.20;1.65;;;;;;;;;;5034651;28;20724;-72
2022/09/09 09:29:58;;;;;;;2.85;1.35;;;;;;;;;;5005647;28;20232;-73
2022/09/09 09:32:24;;;;;;;1.50;1.27;;;;;;;;;;4997623;28;20223;-72
2022/09/09 09:35:01;;;;;;;1.95;1.20;;;;;;;;;;5011814;28;20642;-72
2022/09/09 09:37:33;;;;;;;3.28;1.40;;;;;;;;;;5005110;28;20232;-72
2022/09/09 09:40:16;;;;;;;3.70;1.42;;;;;;;;;;4994371;28;20597;-72
2022/09/09 09:42:56;;;;;;;1.30;1.20;;;;;;;;;;5016846;28;20234;-72
2022/09/09 09:45:44;;;;;;;1.73;1.10;;;;;;;;;;5020460;28;27699;-73
2022/09/09 09:48:12;;;;;;;1.63;1.10;;;;;;;;;;5036899;28;20227;-73
2022/09/09 09:50:57;;;;;;;2.88;1.13;;;;;;;;;;5005146;28;20251;-73
2022/09/09 09:53:28;;;;;;;1.67;1.30;;;;;;;;;;5019657;28;20224;-73
2022/09/09 09:55:58;;;;;;;2.22;1.23;;;;;;;;;;4989736;28;20315;-73
2022/09/09 09:58:25;;;;;;;3.13;1.40;;;;;;;;;;5022240;28;20233;-72
2022/09/09 10:00:52;;;;;;;1.77;1.40;;;;;;;;;;5004818;28;20262;-73
2022/09/09 10:03:26;;;;;;;3.42;1.40;;;;;;;;;;5003870;28;20212;-73
2022/09/09 10:05:54;;;;;;;1.45;1.10;;;;;;;;;;5012976;28;20929;-74
2022/09/09 10:08:20;;;;;;;2.13;1.10;;;;;;;;;;5002361;28;20231;-73
2022/09/09 10:11:24;;;;;;;2.65;1.20;;;;;;;;;;5008803;28;20227;-73
2022/09/09 10:14:14;;;;;;;1.52;1.10;;;;;;;;;;5019319;28;20321;-72
2022/09/09 10:17:16;;;;;;;2.13;1.10;;;;;;;;;;5036432;28;20224;-72
2022/09/09 10:20:07;;;;;;;1.67;1.17;;;;;;;;;;4974770;28;20579;-73
2022/09/09 10:22:34;;;;;;;2.97;1.13;;;;;;;;;;5018191;28;20515;-80
2022/09/09 10:25:29;;;;;;;2.53;1.20;;;;;;;;;;4989886;28;20607;-76
2022/09/09 10:28:08;;;;;;;3.92;1.42;;;;;;;;;;5020428;28;20318;-74
2022/09/09 10:30:53;;;;;;;1.45;1.15;;;;;;;;;;5006696;28;20253;-75
2022/09/09 10:33:56;;;;;;;3.75;1.42;;;;;;;;;;5008457;28;20255;-75
2022/09/09 10:36:24;;;;;;;0.98;0.93;;;;;;;;;;5037132;28;20211;-75
2022/09/09 10:38:58;;;;;;;1.67;1.02;;;;;;;;;;5018002;28;20310;-74
2022/09/09 10:41:55;;;;;;;3.25;1.33;;;;;;;;;;5019803;28;20352;-73
2022/09/09 10:44:30;;;;;;;22.95;17.60;;;;;;;;;;5018552;28;20216;-75
2022/09/09 10:47:18;;;;;;;3.30;1.85;;;;;;;;;;5015407;28;20236;-73
2022/09/09 10:49:52;;;;;;;1.80;1.50;;;;;;;;;;5009681;28;20721;-73
2022/09/09 10:52:44;;;;;;;3.60;1.55;;;;;;;;;;5005060;28;20231;-73
2022/09/09 10:55:18;;;;;;;5.05;1.80;;;;;;;;;;5013547;28;20263;-73
2022/09/09 10:57:53;;;;;;;2.53;1.50;;;;;;;;;;4998489;28;20243;-72
2022/09/09 11:00:25;;;;;;;2.83;1.48;;;;;;;;;;4999676;28;20215;-73
2022/09/09 11:03:02;;;;;;;1.73;1.40;;;;;;;;;;5020260;28;20301;-73
2022/09/09 11:05:44;;;;;;;2.15;1.13;;;;;;;;;;5008380;28;20307;-73
2022/09/09 11:08:15;;;;;;;2.15;1.50;;;;;;;;;;5017460;28;20720;-73
2022/09/09 11:10:43;;;;;;;2.92;1.60;;;;;;;;;;4994477;28;20224;-73
2022/09/09 11:13:20;;;;;;;4.47;1.48;;;;;;;;;;5016148;28;20578;-74
2022/09/09 11:15:52;;;;;;;4.20;1.70;;;;;;;;;;5005492;28;20281;-74
2022/09/09 11:18:22;;;;;;;3.28;1.42;;;;;;;;;;5025291;28;20775;-71
2022/09/09 11:20:55;;;;;;;1.88;1.60;;;;;;;;;;5024632;28;20224;-74
2022/09/09 11:23:42;;;;;;;3.75;1.80;;;;;;;;;;5005522;28;20221;-71
2022/09/09 11:26:13;;;;;;;2.50;2.25;;;;;;;;;;5015903;28;20793;-74
2022/09/09 11:29:03;;;;;;;4.32;2.47;;;;;;;;;;5019146;28;20322;-72
2022/09/09 11:31:58;;;;;;;3.95;2.10;;;;;;;;;;5036343;28;20222;-71
2022/09/09 11:35:02;;;;;;;4.05;2.63;;;;;;;;;;5020071;28;20233;-74
2022/09/09 11:38:10;;;;;;;2.05;1.50;;;;;;;;;;4998584;28;20251;-73
2022/09/09 11:40:40;;;;;;;3.63;1.92;;;;;;;;;;4999411;28;20215;-73
2022/09/09 11:43:24;;;;;;;3.42;1.90;;;;;;;;;;4999977;28;20224;-71
2022/09/09 11:45:56;;;;;;;2.45;1.70;;;;;;;;;;5003660;28;20713;-73
2022/09/09 11:48:45;;;;;;;3.03;1.80;;;;;;;;;;4990895;28;20238;-72
2022/09/09 11:51:20;;;;;;;5.55;1.45;;;;;;;;;;5018123;28;20219;-73
2022/09/09 11:54:29;;;;;;;1.60;1.50;;;;;;;;;;5036480;28;20254;-73
2022/09/09 11:56:56;;;;;;;1.88;1.20;;;;;;;;;;5007890;28;20603;-75
2022/09/09 11:59:31;;;;;;;2.65;1.40;;;;;;;;;;5020157;28;20606;-75
2022/09/09 12:02:24;;;;;;;3.67;1.38;;;;;;;;;;5023043;28;20231;-73
2022/09/09 12:05:08;;;;;;;4.40;1.52;;;;;;;;;;5014136;28;20242;-72
2022/09/09 12:07:38;;;;;;;2.05;1.35;;;;;;;;;;5015875;28;20227;-72
2022/09/09 12:10:21;;;;;;;2.13;1.35;;;;;;;;;;5005230;28;20211;-74
2022/09/09 12:12:47;;;;;;;2.17;1.15;;;;;;;;;;5006072;28;20777;-72
2022/09/09 12:15:28;;;;;;;3.40;1.40;;;;;;;;;;4984817;28;20689;-74
2022/09/09 12:17:58;;;;;;;4.60;1.42;;;;;;;;;;5006099;28;20313;-73
2022/09/09 12:20:31;;;;;;;0.50;0.50;;;;;;;;;;5034744;28;20223;-73
2022/09/09 12:23:16;;;;;;;0.60;0.60;;;;;;;;;;5000247;28;20689;-73
2022/09/09 12:26:03;;;;;;;0.70;0.57;;;;;;;;;;5017732;28;20336;-74
2022/09/09 12:28:48;;;;;;;2.10;0.60;;;;;;;;;;5036043;28;20238;-72
2022/09/09 12:31:36;;;;;;;1.40;0.63;;;;;;;;;;5029991;28;20233;-72
2022/09/09 12:34:18;;;;;;;1.02;0.52;;;;;;;;;;5001404;28;20314;-72
2022/09/09 12:36:49;;;;;;;2.78;1.10;;;;;;;;;;5000618;28;20714;-72
2022/09/09 12:40:00;;;;;;;2.78;1.02;;;;;;;;;;4985033;28;20219;-73
2022/09/09 12:42:26;;;;;;;1.00;0.68;;;;;;;;;;4932852;28;20821;-73
2022/09/09 12:44:56;;;;;;;4.22;1.05;;;;;;;;;;4968724;28;20250;-73
2022/09/09 12:47:40;;;;;;;1.95;0.80;;;;;;;;;;5006014;28;20312;-73
2022/09/09 12:50:30;;;;;;;3.33;1.00;;;;;;;;;;5019006;28;20230;-74
2022/09/09 12:53:10;;;;;;;6.22;1.05;;;;;;;;;;5017169;28;20763;-73
2022/09/09 12:55:38;;;;;;;3.00;0.95;;;;;;;;;;5007752;28;20251;-74
2022/09/09 12:58:05;;;;;;;2.78;0.93;;;;;;;;;;4995783;28;20631;-72
2022/09/09 13:00:33;;;;;;;1.33;0.80;;;;;;;;;;5002821;28;20224;-73
2022/09/09 13:03:00;;;;;;;4.15;1.00;;;;;;;;;;5001183;28;20305;-72
2022/09/09 13:05:27;;;;;;;3.42;1.00;;;;;;;;;;4999383;28;20292;-70
2022/09/09 13:08:03;;;;;;;1.77;0.95;;;;;;;;;;4991658;28;20235;-73
2022/09/09 13:10:44;;;;;;;2.78;0.98;;;;;;;;;;5002125;28;20238;-71
2022/09/09 13:13:17;;;;;;;4.15;1.10;;;;;;;;;;5016451;28;20601;-72
2022/09/09 13:15:53;;;;;;;1.48;0.90;;;;;;;;;;5011692;28;20330;-73
2022/09/09 13:18:29;;;;;;;1.65;0.85;;;;;;;;;;5009080;28;20227;-71
2022/09/09 13:20:58;;;;;;;2.35;0.82;;;;;;;;;;5021085;28;20223;-72
2022/09/09 13:23:29;;;;;;;2.10;0.95;;;;;;;;;;5004404;28;20269;-73
2022/09/09 13:26:03;;;;;;;1.55;1.00;;;;;;;;;;5024803;28;20227;-72
2022/09/09 13:28:30;;;;;;;2.50;1.02;;;;;;;;;;4994418;28;20235;-71
2022/09/09 13:31:00;;;;;;;4.28;1.05;;;;;;;;;;5013645;28;20611;-72
2022/09/09 13:33:31;;;;;;;2.60;1.27;;;;;;;;;;4989101;28;20219;-72
2022/09/09 13:36:15;;;;;;;1.55;0.80;;;;;;;;;;5023488;28;20236;-73
2022/09/09 13:38:56;;;;;;;1.38;1.00;;;;;;;;;;4989600;28;20307;-73
2022/09/09 13:41:24;;;;;;;1.63;1.27;;;;;;;;;;5017516;28;20233;-71
2022/09/09 13:43:50;;;;;;;2.28;1.42;;;;;;;;;;5020750;28;20330;-71
2022/09/09 13:46:41;;;;;;;3.33;1.27;;;;;;;;;;4994814;28;20704;-71
2022/09/09 13:49:11;;;;;;;2.28;1.40;;;;;;;;;;5009224;28;20246;-74
2022/09/09 13:51:46;;;;;;;2.03;1.25;;;;;;;;;;5036662;28;20227;-74
2022/09/09 13:54:14;;;;;;;3.78;1.15;;;;;;;;;;5021364;28;20218;-73
2022/09/09 13:56:41;;;;;;;0.80;0.80;;;;;;;;;;5017789;28;20242;-73
2022/09/09 13:59:12;;;;;;;2.38;1.30;;;;;;;;;;5005532;28;20221;-73
2022/09/09 14:01:41;;;;;;;1.80;1.08;;;;;;;;;;5021869;28;20608;-72
2022/09/09 14:04:08;;;;;;;1.00;0.90;;;;;;;;;;5022012;28;20219;-73
2022/09/09 14:06:37;;;;;;;1.40;1.02;;;;;;;;;;5028291;28;20316;-72
2022/09/09 14:09:03;;;;;;;0.93;0.82;;;;;;;;;;5006180;28;20227;-73
2022/09/09 14:11:29;;;;;;;0.95;0.90;;;;;;;;;;5020762;28;20223;-73
2022/09/09 14:13:56;;;;;;;0.70;0.70;;;;;;;;;;4996353;28;20230;-71
2022/09/09 14:16:22;;;;;;;1.95;0.90;;;;;;;;;;5001708;28;20235;-72
2022/09/09 14:18:49;;;;;;;0.63;0.60;;;;;;;;;;5011175;28;20277;-72
2022/09/09 14:21:15;;;;;;;1.17;0.88;;;;;;;;;;4988612;28;20222;-72
2022/09/09 14:23:41;;;;;;;0.73;0.73;;;;;;;;;;4990572;28;20235;-73
2022/09/09 14:26:08;;;;;;;2.75;0.85;;;;;;;;;;5004972;28;20231;-74
2022/09/09 14:28:35;;;;;;;1.77;0.90;;;;;;;;;;5023125;28;20270;-74
2022/09/09 14:31:03;;;;;;;1.10;0.93;;;;;;;;;;4989156;28;20227;-74
2022/09/09 14:33:38;;;;;;;0.93;0.70;;;;;;;;;;5000349;28;20223;-71
2022/09/09 14:36:05;;;;;;;1.50;0.90;;;;;;;;;;5006430;28;20234;-72
2022/09/09 14:38:38;;;;;;;1.98;0.93;;;;;;;;;;5021565;28;20630;-72
2022/09/09 14:41:05;;;;;;;1.20;1.10;;;;;;;;;;5000525;28;20280;-73
2022/09/09 14:43:33;;;;;;;2.20;1.23;;;;;;;;;;4986503;28;20794;-72
2022/09/09 14:46:11;;;;;;;1.50;1.10;;;;;;;;;;5025539;28;20643;-72
2022/09/09 14:48:38;;;;;;;2.55;1.30;;;;;;;;;;5021682;28;20325;-72
2022/09/09 14:51:07;;;;;;;1.73;1.30;;;;;;;;;;5020697;28;20231;-72
2022/09/09 14:53:34;;;;;;;1.95;1.30;;;;;;;;;;5024852;28;20576;-72
2022/09/09 14:56:15;;;;;;;2.25;1.20;;;;;;;;;;4990395;28;20258;-71
2022/09/09 14:58:42;;;;;;;1.50;1.02;;;;;;;;;;5006022;28;20228;-71
2022/09/09 15:01:18;;;;;;;1.15;1.00;;;;;;;;;;4997735;28;20219;-71
2022/09/09 15:03:55;;;;;;;1.27;0.90;;;;;;;;;;5005446;28;20600;-72
2022/09/09 15:06:29;;;;;;;0.70;0.70;;;;;;;;;;5017846;28;20219;-73
2022/09/09 15:08:58;;;;;;;1.95;1.02;;;;;;;;;;5016186;28;20239;-72
2022/09/09 15:11:27;;;;;;;1.50;0.85;;;;;;;;;;5020711;28;20220;-71
2022/09/09 15:13:56;;;;;;;1.27;1.00;;;;;;;;;;5031360;28;20254;-71
2022/09/09 15:16:24;;;;;;;1.30;1.17;;;;;;;;;;5018880;28;20476;-70
2022/09/09 15:18:53;;;;;;;2.78;1.17;;;;;;;;;;5000974;28;20907;-71
2022/09/09 15:21:21;;;;;;;1.25;0.88;;;;;;;;;;5008261;28;20760;-71
2022/09/09 15:23:47;;;;;;;2.03;0.90;;;;;;;;;;5016340;28;20219;-73
2022/09/09 15:26:16;;;;;;;1.85;0.85;;;;;;;;;;5020146;28;20710;-72